Time;durP1;ratioP1;P1;durP2;ratioP2;P2;SDS_P1;SDS_P2;PMS_P1;PMS_P2;Temp;Humidity;BMP_temperature;BMP_pressure;BME280_temperature;BME280_humidity;BME280_pressure;Samples;Min_cycle;Max_cycle;Signal;HPM_P1;HPM_P2
2022/11/28 00:00:21;;;;;;;8.50;5.85;;;;;;;5.78;100.00;100921.75;1038217;28;20310;-82
2022/11/28 00:00:52;;;;;;;6.80;5.50;;;;;;;5.77;100.00;100923.56;1031738;28;20309;-82
2022/11/28 00:01:26;;;;;;;9.70;6.43;;;;;;;5.86;100.00;100924.28;1033649;28;20328;-82
2022/11/28 00:01:57;;;;;;;10.38;6.72;;;;;;;5.89;100.00;100921.28;1034492;28;20304;-82
2022/11/28 00:02:29;;;;;;;6.30;5.70;;;;;;;5.92;100.00;100917.47;1038520;28;20324;-81
2022/11/28 00:03:00;;;;;;;7.00;6.22;;;;;;;5.93;100.00;100919.13;1039457;28;20758;-83
2022/11/28 00:03:32;;;;;;;8.10;6.68;;;;;;;5.87;100.00;100921.47;1039522;28;20310;-82
2022/11/28 00:04:05;;;;;;;10.68;5.68;;;;;;;5.94;100.00;100918.94;1036809;28;20300;-82
2022/11/28 00:04:36;;;;;;;7.85;5.78;;;;;;;5.91;100.00;100927.22;1035220;28;20300;-82
2022/11/28 00:05:11;;;;;;;7.65;6.68;;;;;;;5.93;100.00;100919.94;1039131;28;20303;-82
2022/11/28 00:05:43;;;;;;;7.93;5.88;;;;;;;5.95;100.00;100917.09;1039274;28;20387;-82
2022/11/28 00:06:18;;;;;;;8.25;6.15;;;;;;;5.89;100.00;100924.78;1038863;28;20310;-82
2022/11/28 00:06:49;;;;;;;9.68;6.65;;;;;;;6.00;100.00;100920.00;1036922;28;20303;-82
2022/11/28 00:07:21;;;;;;;7.45;6.72;;;;;;;5.88;100.00;100912.53;1035669;28;20296;-82
2022/11/28 00:07:54;;;;;;;10.18;6.15;;;;;;;5.95;100.00;100917.94;1039053;28;20346;-82
2022/11/28 00:08:26;;;;;;;7.72;6.70;;;;;;;5.93;100.00;100914.66;1035840;28;20307;-82
2022/11/28 00:08:58;;;;;;;6.93;5.82;;;;;;;5.99;100.00;100908.63;1031826;28;20308;-82
2022/11/28 00:09:30;;;;;;;8.80;5.93;;;;;;;5.92;100.00;100907.72;1031129;28;20386;-82
2022/11/28 00:10:02;;;;;;;8.55;5.70;;;;;;;5.92;100.00;100906.91;1031434;28;20854;-82
2022/11/28 00:10:38;;;;;;;8.85;6.90;;;;;;;5.88;100.00;100901.97;1036179;28;20292;-82
2022/11/28 00:11:11;;;;;;;9.43;5.95;;;;;;;5.91;100.00;100902.63;1036444;28;20434;-82
2022/11/28 00:11:44;;;;;;;8.98;6.22;;;;;;;5.99;100.00;100902.50;1034991;28;20300;-82
2022/11/28 00:12:15;;;;;;;11.15;6.40;;;;;;;5.98;100.00;100906.16;1027798;28;20392;-82
2022/11/28 00:12:47;;;;;;;11.25;7.28;;;;;;;5.95;100.00;100907.34;1030011;28;20432;-82
2022/11/28 00:13:18;;;;;;;8.65;5.95;;;;;;;5.99;100.00;100913.91;1035967;28;20312;-82
2022/11/28 00:13:50;;;;;;;7.72;6.38;;;;;;;5.93;100.00;100905.91;1039038;28;20378;-82
2022/11/28 00:14:21;;;;;;;9.45;6.53;;;;;;;5.97;100.00;100904.53;1034923;28;20300;-82
2022/11/28 00:14:54;;;;;;;10.77;6.47;;;;;;;5.95;100.00;100906.53;1027248;28;20330;-82
2022/11/28 00:15:25;;;;;;;8.73;6.57;;;;;;;5.94;100.00;100904.88;1027086;28;20425;-82
2022/11/28 00:15:58;;;;;;;7.15;5.68;;;;;;;6.03;100.00;100903.81;1027713;28;20309;-82
2022/11/28 00:16:30;;;;;;;8.02;6.35;;;;;;;6.01;100.00;100900.50;1028201;28;20325;-82
2022/11/28 00:17:02;;;;;;;7.75;6.25;;;;;;;6.05;100.00;100896.50;1026733;28;20811;-82
2022/11/28 00:17:33;;;;;;;10.80;6.40;;;;;;;6.11;100.00;100901.88;1026717;28;20297;-82
2022/11/28 00:18:05;;;;;;;7.55;5.97;;;;;;;6.10;100.00;100907.34;1031966;28;20383;-82
2022/11/28 00:18:36;;;;;;;8.68;6.32;;;;;;;6.07;100.00;100905.88;1028781;28;20772;-82
2022/11/28 00:19:09;;;;;;;8.00;5.30;;;;;;;6.06;100.00;100906.06;1035433;28;20424;-82
2022/11/28 00:19:41;;;;;;;6.80;5.95;;;;;;;6.02;100.00;100912.72;1034869;28;20835;-82
2022/11/28 00:20:12;;;;;;;7.78;6.80;;;;;;;6.04;100.00;100900.16;1029840;28;20890;-82
2022/11/28 00:20:44;;;;;;;9.05;6.18;;;;;;;5.97;100.00;100904.53;1035207;28;20375;-82
2022/11/28 00:21:16;;;;;;;10.57;6.60;;;;;;;5.96;100.00;100910.81;1034335;28;20296;-82
2022/11/28 00:21:47;;;;;;;8.15;6.07;;;;;;;5.97;100.00;100899.22;1027879;28;20302;-82
2022/11/28 00:22:19;;;;;;;7.63;5.97;;;;;;;5.93;100.00;100905.91;1031713;28;20383;-82
2022/11/28 00:22:51;;;;;;;6.90;5.95;;;;;;;5.96;100.00;100906.34;1035228;28;20883;-82
2022/11/28 00:23:22;;;;;;;10.38;6.60;;;;;;;5.98;100.00;100900.88;1027772;28;20389;-82
2022/11/28 00:23:54;;;;;;;6.13;5.53;;;;;;;5.98;100.00;100909.63;1026649;28;20350;-82
2022/11/28 00:24:25;;;;;;;8.18;6.70;;;;;;;6.00;100.00;100904.16;1027638;28;20388;-82
2022/11/28 00:24:57;;;;;;;9.00;6.53;;;;;;;6.09;100.00;100897.78;1032137;28;20943;-82
2022/11/28 00:25:28;;;;;;;9.43;6.10;;;;;;;6.07;100.00;100899.78;1030929;28;20305;-83
2022/11/28 00:26:02;;;;;;;7.30;6.35;;;;;;;6.05;100.00;100899.97;1037999;28;20339;-82
2022/11/28 00:26:39;;;;;;;9.63;6.53;;;;;;;6.07;100.00;100895.31;1035193;28;20296;-82
2022/11/28 00:27:11;;;;;;;10.70;6.53;;;;;;;6.18;100.00;100891.34;1036397;28;20297;-82
2022/11/28 00:27:42;;;;;;;10.75;6.18;;;;;;;6.08;100.00;100896.13;1034546;28;20321;-82
2022/11/28 00:28:14;;;;;;;6.45;5.85;;;;;;;6.12;100.00;100897.41;1027891;28;20668;-82
2022/11/28 00:28:46;;;;;;;6.65;5.80;;;;;;;6.08;100.00;100891.66;1031387;28;20368;-82
2022/11/28 00:29:17;;;;;;;11.73;6.75;;;;;;;6.06;100.00;100896.31;1030406;28;20332;-82
2022/11/28 00:29:49;;;;;;;6.70;5.85;;;;;;;6.05;100.00;100901.78;1031080;28;20383;-82
2022/11/28 00:30:20;;;;;;;8.82;6.70;;;;;;;6.01;100.00;100896.03;1031124;28;20329;-82
2022/11/28 00:30:52;;;;;;;9.43;7.13;;;;;;;6.06;100.00;100893.69;1032229;28;20779;-82
2022/11/28 00:31:29;;;;;;;7.93;5.93;;;;;;;6.08;100.00;100896.13;1039624;28;20662;-82
2022/11/28 00:32:00;;;;;;;6.57;5.82;;;;;;;6.12;100.00;100903.50;1034936;28;20312;-83
2022/11/28 00:32:32;;;;;;;7.95;5.90;;;;;;;6.11;100.00;100893.94;1035465;28;20295;-82
2022/11/28 00:33:03;;;;;;;7.13;6.15;;;;;;;6.07;100.00;100891.84;1035905;28;20852;-82
2022/11/28 00:33:35;;;;;;;7.30;5.97;;;;;;;6.13;100.00;100893.75;1032647;28;20340;-82
2022/11/28 00:34:08;;;;;;;10.25;6.55;;;;;;;6.13;100.00;100899.03;1039551;28;20375;-82
2022/11/28 00:34:40;;;;;;;11.57;6.45;;;;;;;6.15;100.00;100892.56;1034045;28;20382;-82
2022/11/28 00:35:12;;;;;;;10.05;6.43;;;;;;;6.06;100.00;100892.84;1035806;28;20315;-82
2022/11/28 00:35:43;;;;;;;7.20;6.20;;;;;;;6.11;100.00;100886.00;1039137;28;20741;-82
2022/11/28 00:36:15;;;;;;;7.93;6.60;;;;;;;6.08;100.00;100893.50;1035978;28;20391;-82
2022/11/28 00:36:47;;;;;;;9.82;7.38;;;;;;;6.11;100.00;100882.53;1035142;28;20484;-83
2022/11/28 00:37:19;;;;;;;10.70;6.05;;;;;;;6.03;100.00;100893.22;1031579;28;20640;-82
2022/11/28 00:37:50;;;;;;;9.35;6.72;;;;;;;6.01;100.00;100895.22;1035906;28;20324;-82
2022/11/28 00:38:22;;;;;;;7.82;6.50;;;;;;;5.99;100.00;100890.09;1031208;28;20375;-82
2022/11/28 00:38:53;;;;;;;9.30;6.32;;;;;;;6.12;100.00;100892.94;1035208;28;20296;-82
2022/11/28 00:39:25;;;;;;;9.35;7.25;;;;;;;6.07;100.00;100886.56;1035387;28;20408;-82
2022/11/28 00:39:56;;;;;;;14.23;8.40;;;;;;;6.05;100.00;100896.50;1031349;28;20309;-82
2022/11/28 00:40:28;;;;;;;10.73;6.47;;;;;;;6.11;100.00;100890.47;1035469;28;20914;-82
2022/11/28 00:41:01;;;;;;;10.98;6.97;;;;;;;6.09;100.00;100900.41;1035244;28;20394;-82
2022/11/28 00:41:34;;;;;;;9.60;6.00;;;;;;;6.10;100.00;100897.59;1031644;28;20384;-82
2022/11/28 00:42:05;;;;;;;9.40;6.43;;;;;;;6.24;100.00;100892.44;1034985;28;20351;-82
2022/11/28 00:42:37;;;;;;;9.48;6.55;;;;;;;6.19;100.00;100893.81;1036162;28;20667;-82
2022/11/28 00:43:10;;;;;;;7.78;6.47;;;;;;;6.24;100.00;100890.59;1043455;28;20322;-83
2022/11/28 00:43:43;;;;;;;8.05;5.85;;;;;;;6.18;100.00;100886.06;1036944;28;20335;-82
2022/11/28 00:44:14;;;;;;;8.95;7.10;;;;;;;6.20;100.00;100894.63;1033986;28;20305;-82
2022/11/28 00:44:46;;;;;;;6.93;6.22;;;;;;;6.15;100.00;100889.09;1031095;28;20368;-82
2022/11/28 00:45:17;;;;;;;7.32;6.32;;;;;;;6.24;100.00;100890.59;1027244;28;20317;-82
2022/11/28 00:45:49;;;;;;;7.65;5.95;;;;;;;6.21;100.00;100890.97;1027956;28;20380;-82
2022/11/28 00:46:22;;;;;;;11.55;6.68;;;;;;;6.18;100.00;100886.06;1033902;28;20308;-82
2022/11/28 00:46:53;;;;;;;10.63;6.53;;;;;;;6.28;100.00;100886.56;1029314;28;20939;-83
2022/11/28 00:47:25;;;;;;;8.13;6.63;;;;;;;6.17;100.00;100879.13;1027283;28;20494;-82
2022/11/28 00:47:56;;;;;;;7.82;6.25;;;;;;;6.24;100.00;100879.22;1032145;28;20787;-82
2022/11/28 00:48:28;;;;;;;7.35;6.55;;;;;;;6.13;100.00;100884.00;1035347;28;20496;-82
2022/11/28 00:48:59;;;;;;;10.35;6.68;;;;;;;6.13;100.00;100872.59;1035408;28;20339;-82
2022/11/28 00:49:31;;;;;;;10.60;7.45;;;;;;;6.20;100.00;100881.41;1039161;28;20808;-83
2022/11/28 00:50:03;;;;;;;8.40;6.38;;;;;;;6.23;100.00;100883.69;1039277;28;20291;-82
2022/11/28 00:50:34;;;;;;;12.13;6.65;;;;;;;6.27;100.00;100882.28;1033543;28;20395;-82
2022/11/28 00:51:11;;;;;;;12.82;6.50;;;;;;;6.26;100.00;100878.00;1035068;28;20391;-83
2022/11/28 00:51:43;;;;;;;7.47;6.55;;;;;;;6.24;100.00;100880.03;1027474;28;20321;-82
2022/11/28 00:52:14;;;;;;;8.77;6.60;;;;;;;6.30;100.00;100878.44;1034743;28;20432;-82
2022/11/28 00:52:46;;;;;;;8.40;6.53;;;;;;;6.32;100.00;100882.56;1038719;28;20784;-82
2022/11/28 00:53:17;;;;;;;7.15;6.45;;;;;;;6.33;100.00;100888.69;1035657;28;20662;-82
2022/11/28 00:53:50;;;;;;;9.73;6.93;;;;;;;6.31;100.00;100880.13;1036262;28;20331;-82
2022/11/28 00:54:22;;;;;;;8.57;5.80;;;;;;;6.35;100.00;100882.19;1031797;28;20400;-82
2022/11/28 00:54:53;;;;;;;7.28;5.65;;;;;;;6.32;100.00;100876.47;1034079;28;20902;-82
2022/11/28 00:55:25;;;;;;;7.72;6.40;;;;;;;6.32;100.00;100872.00;1033016;28;20378;-82
2022/11/28 00:55:56;;;;;;;8.57;6.47;;;;;;;6.34;100.00;100877.91;1032361;28;20293;-82
2022/11/28 00:56:30;;;;;;;6.88;5.82;;;;;;;6.34;100.00;100874.44;1035681;28;20350;-82
2022/11/28 00:57:02;;;;;;;7.93;6.40;;;;;;;6.42;100.00;100872.50;1029518;28;20453;-82
2022/11/28 00:57:33;;;;;;;7.57;6.63;;;;;;;6.31;100.00;100878.28;1036178;28;20309;-82
2022/11/28 00:58:05;;;;;;;7.90;6.63;;;;;;;6.29;100.00;100876.81;1027501;28;20770;-82
2022/11/28 00:58:37;;;;;;;7.55;5.85;;;;;;;6.28;100.00;100873.34;1028573;28;20780;-82
2022/11/28 00:59:09;;;;;;;9.48;6.32;;;;;;;6.29;100.00;100872.34;1036048;28;20418;-82
2022/11/28 00:59:40;;;;;;;10.02;6.50;;;;;;;6.31;100.00;100870.34;1033106;28;20308;-83
2022/11/28 01:00:13;;;;;;;8.43;5.82;;;;;;;6.29;100.00;100876.81;1035271;28;20482;-82
2022/11/28 01:00:44;;;;;;;9.80;7.00;;;;;;;6.31;100.00;100870.34;1033753;28;20707;-82
2022/11/28 01:01:23;;;;;;;7.20;6.20;;;;;;;6.33;100.00;100873.63;1034174;28;20300;-83
2022/11/28 01:01:55;;;;;;;7.63;6.60;;;;;;;6.30;100.00;100863.44;1034092;28;20672;-82
2022/11/28 01:02:27;;;;;;;8.65;6.68;;;;;;;6.34;100.00;100871.81;1032857;28;20305;-82
2022/11/28 01:02:58;;;;;;;9.23;6.28;;;;;;;6.34;100.00;100864.69;1036833;28;20312;-83
2022/11/28 01:03:30;;;;;;;7.70;6.22;;;;;;;6.38;100.00;100871.25;1040114;28;20398;-82
2022/11/28 01:04:05;;;;;;;9.13;5.78;;;;;;;6.27;100.00;100868.25;1039868;28;20300;-82
2022/11/28 01:04:36;;;;;;;8.27;7.05;;;;;;;6.20;100.00;100863.72;1039860;28;20845;-82
2022/11/28 01:05:08;;;;;;;7.13;6.43;;;;;;;6.16;100.00;100864.28;1035888;28;21042;-83
2022/11/28 01:05:40;;;;;;;7.07;6.32;;;;;;;6.30;100.00;100859.94;1035923;28;20433;-82
2022/11/28 01:06:19;;;;;;;10.02;7.10;;;;;;;6.24;100.00;100858.88;1033006;28;20304;-81
2022/11/28 01:06:51;;;;;;;7.88;6.32;;;;;;;6.36;100.00;100861.84;1031938;28;20305;-82
2022/11/28 01:07:22;;;;;;;8.75;6.40;;;;;;;6.32;100.00;100858.78;1032454;28;20368;-82
2022/11/28 01:07:54;;;;;;;11.23;7.03;;;;;;;6.29;100.00;100860.94;1033146;28;20293;-82
2022/11/28 01:08:26;;;;;;;10.07;6.97;;;;;;;6.30;100.00;100858.13;1032149;28;20344;-82
2022/11/28 01:09:00;;;;;;;9.77;6.55;;;;;;;6.35;100.00;100861.03;1031327;28;20336;-81
2022/11/28 01:09:32;;;;;;;9.15;5.95;;;;;;;6.25;100.00;100867.63;1028615;28;20361;-82
2022/11/28 01:10:04;;;;;;;9.02;6.65;;;;;;;6.29;100.00;100867.06;1028086;28;20380;-82
2022/11/28 01:10:43;;;;;;;10.02;6.40;;;;;;;6.37;100.00;100864.31;1028274;28;20859;-82
2022/11/28 01:11:15;;;;;;;9.63;6.43;;;;;;;6.38;100.00;100859.84;1026225;28;20748;-82
2022/11/28 01:11:48;;;;;;;9.73;6.53;;;;;;;6.37;100.00;100859.03;1035734;28;20307;-82
2022/11/28 01:12:19;;;;;;;8.07;6.68;;;;;;;6.43;100.00;100857.44;1033582;28;20309;-82
2022/11/28 01:12:51;;;;;;;8.70;6.75;;;;;;;6.40;100.00;100858.63;1035517;28;20362;-82
2022/11/28 01:13:23;;;;;;;8.57;6.72;;;;;;;6.35;100.00;100861.03;1032994;28;20797;-81
2022/11/28 01:13:57;;;;;;;11.63;6.03;;;;;;;6.31;100.00;100857.13;1036228;28;20402;-82
2022/11/28 01:14:29;;;;;;;8.70;6.28;;;;;;;6.37;100.00;100852.91;1036584;28;20779;-81
2022/11/28 01:15:00;;;;;;;10.52;6.60;;;;;;;6.35;100.00;100863.69;1036059;28;20339;-82
2022/11/28 01:15:32;;;;;;;11.57;7.38;;;;;;;6.45;100.00;100858.88;1035784;28;20304;-82
2022/11/28 01:16:03;;;;;;;6.65;5.90;;;;;;;6.42;100.00;100856.63;1034762;28;20387;-81
2022/11/28 01:16:35;;;;;;;9.07;6.68;;;;;;;6.39;100.00;100859.66;1030864;28;20309;-82
2022/11/28 01:17:07;;;;;;;8.18;6.25;;;;;;;6.32;100.00;100863.25;1031271;28;20377;-82
2022/11/28 01:17:39;;;;;;;9.27;6.20;;;;;;;6.34;100.00;100859.41;1032287;28;21105;-82
2022/11/28 01:18:10;;;;;;;9.50;6.55;;;;;;;6.41;100.00;100855.00;1032377;28;20309;-82
2022/11/28 01:18:42;;;;;;;8.57;7.30;;;;;;;6.37;100.00;100861.66;1031414;28;20694;-82
2022/11/28 01:19:14;;;;;;;9.43;7.00;;;;;;;6.33;100.00;100863.06;1032217;28;20297;-82
2022/11/28 01:19:45;;;;;;;7.78;6.72;;;;;;;6.31;100.00;100861.59;1035985;28;20296;-82
2022/11/28 01:20:17;;;;;;;9.40;6.68;;;;;;;6.29;100.00;100861.75;1030298;28;20308;-82
2022/11/28 01:20:48;;;;;;;7.10;6.40;;;;;;;6.32;100.00;100856.13;1034872;28;20658;-82
2022/11/28 01:21:20;;;;;;;8.50;6.38;;;;;;;6.28;100.00;100849.53;1036209;28;20371;-82
2022/11/28 01:21:52;;;;;;;8.88;6.22;;;;;;;6.37;100.00;100848.44;1040587;28;20292;-82
2022/11/28 01:22:23;;;;;;;8.10;6.35;;;;;;;6.31;100.00;100849.19;1043614;28;20291;-82
2022/11/28 01:22:55;;;;;;;9.32;6.97;;;;;;;6.33;100.00;100852.47;1039985;28;20856;-81
2022/11/28 01:23:26;;;;;;;7.90;6.18;;;;;;;6.34;100.00;100854.09;1040208;28;20646;-82
2022/11/28 01:23:58;;;;;;;9.85;6.22;;;;;;;6.39;100.00;100851.72;1035270;28;20328;-82
2022/11/28 01:24:29;;;;;;;10.10;6.82;;;;;;;6.46;100.00;100855.22;1032510;28;20300;-82
2022/11/28 01:25:01;;;;;;;7.22;6.53;;;;;;;6.41;100.00;100849.69;1030255;28;20800;-82
2022/11/28 01:25:32;;;;;;;12.57;6.90;;;;;;;6.44;100.00;100851.13;1036119;28;20304;-82
2022/11/28 01:26:05;;;;;;;7.45;6.28;;;;;;;6.46;100.00;100847.28;1040241;28;20908;-82
2022/11/28 01:26:39;;;;;;;7.47;6.65;;;;;;;6.45;100.00;100856.25;1036273;28;20432;-82
2022/11/28 01:27:10;;;;;;;10.10;5.80;;;;;;;6.39;100.00;100853.53;1032968;28;20308;-82
2022/11/28 01:27:42;;;;;;;8.25;6.30;;;;;;;6.36;100.00;100852.09;1035486;28;20346;-82
2022/11/28 01:28:13;;;;;;;8.85;6.30;;;;;;;6.42;100.00;100851.34;1032559;28;20293;-82
2022/11/28 01:28:45;;;;;;;7.97;6.68;;;;;;;6.45;100.00;100845.66;1034805;28;20370;-82
2022/11/28 01:29:17;;;;;;;9.75;7.55;;;;;;;6.41;100.00;100854.16;1038568;28;20328;-82
2022/11/28 01:29:49;;;;;;;9.20;6.05;;;;;;;6.39;100.00;100853.53;1035980;28;20308;-82
2022/11/28 01:30:20;;;;;;;9.52;6.68;;;;;;;6.38;100.00;100852.72;1035659;28;20399;-82
2022/11/28 01:30:52;;;;;;;9.27;6.43;;;;;;;6.54;100.00;100850.81;1040330;28;20383;-82
2022/11/28 01:31:25;;;;;;;8.50;7.05;;;;;;;6.60;100.00;100837.66;1036563;28;20391;-82
2022/11/28 01:31:57;;;;;;;10.27;7.13;;;;;;;6.61;100.00;100835.84;1031427;28;20308;-82
2022/11/28 01:32:29;;;;;;;10.90;6.43;;;;;;;6.46;100.00;100843.84;1031734;28;20307;-82
2022/11/28 01:33:00;;;;;;;10.35;6.00;;;;;;;6.39;100.00;100846.41;1032844;28;20857;-82
2022/11/28 01:33:32;;;;;;;9.95;6.45;;;;;;;6.38;100.00;100843.97;1036343;28;20803;-82
2022/11/28 01:34:04;;;;;;;8.40;6.47;;;;;;;6.35;100.00;100845.16;1031789;28;20476;-82
2022/11/28 01:34:35;;;;;;;8.18;6.55;;;;;;;6.47;100.00;100854.22;1031824;28;20379;-82
2022/11/28 01:35:07;;;;;;;10.02;6.20;;;;;;;6.46;100.00;100846.47;1025573;28;20435;-82
2022/11/28 01:35:39;;;;;;;8.55;6.93;;;;;;;6.47;100.00;100853.41;1028486;28;20361;-82
2022/11/28 01:36:11;;;;;;;9.43;6.60;;;;;;;6.58;100.00;100844.97;1031298;28;20333;-82
2022/11/28 01:36:43;;;;;;;8.38;6.95;;;;;;;6.51;100.00;100844.06;1029089;28;20389;-82
2022/11/28 01:37:14;;;;;;;10.00;6.40;;;;;;;6.46;100.00;100846.47;1031293;28;20441;-82
2022/11/28 01:37:46;;;;;;;9.80;6.35;;;;;;;6.50;100.00;100840.63;1032128;28;20431;-82
2022/11/28 01:38:17;;;;;;;6.90;6.20;;;;;;;6.51;100.00;100844.91;1032219;28;20289;-82
2022/11/28 01:38:49;;;;;;;7.63;6.85;;;;;;;6.56;100.00;100846.97;1031853;28;20440;-82
2022/11/28 01:39:20;;;;;;;7.28;6.47;;;;;;;6.51;100.00;100839.59;1038949;28;20283;-82
2022/11/28 01:39:52;;;;;;;8.82;6.75;;;;;;;6.54;100.00;100845.53;1038277;28;20426;-82
2022/11/28 01:40:24;;;;;;;7.10;6.40;;;;;;;6.42;100.00;100853.97;1035654;28;20383;-82
2022/11/28 01:40:55;;;;;;;10.90;6.78;;;;;;;6.46;100.00;100852.59;1032145;28;20333;-82
2022/11/28 01:41:27;;;;;;;12.07;6.68;;;;;;;6.46;100.00;100846.47;1035864;28;20289;-82
2022/11/28 01:41:59;;;;;;;8.75;6.65;;;;;;;6.41;100.00;100836.47;1032536;28;20297;-82
2022/11/28 01:42:30;;;;;;;10.10;6.55;;;;;;;6.42;100.00;100840.75;1036362;28;20296;-82
2022/11/28 01:43:02;;;;;;;9.20;6.75;;;;;;;6.44;100.00;100849.31;1031240;28;20796;-82
2022/11/28 01:43:34;;;;;;;8.70;7.05;;;;;;;6.55;100.00;100847.16;1029786;28;20297;-82
2022/11/28 01:44:26;;;;;;;9.50;7.25;;;;;;;6.48;100.00;100844.47;1031799;28;20806;-82
2022/11/28 01:45:01;;;;;;;;;;;;;;;6.47;100.00;100846.28;1035113;28;20913;-82
2022/11/28 01:45:33;;;;;;;9.20;5.68;;;;;;;6.44;100.00;100844.03;1036236;28;19929;-82
2022/11/28 01:46:04;;;;;;;14.95;7.05;;;;;;;6.42;100.00;100835.47;1041671;28;20291;-82
2022/11/28 01:46:36;;;;;;;9.82;5.85;;;;;;;6.47;100.00;100843.66;1039340;28;20798;-82
2022/11/28 01:47:07;;;;;;;8.45;5.55;;;;;;;6.43;100.00;100841.56;1031588;28;20316;-82
2022/11/28 01:47:39;;;;;;;6.95;5.60;;;;;;;6.62;100.00;100837.47;1036080;28;20810;-82
2022/11/28 01:48:14;;;;;;;7.60;5.47;;;;;;;6.42;100.00;100840.75;1031458;28;20340;-82
2022/11/28 01:48:46;;;;;;;6.85;6.15;;;;;;;6.39;100.00;100840.31;1028693;28;20305;-82
2022/11/28 01:49:23;;;;;;;7.65;6.35;;;;;;;6.40;100.00;100847.25;1035553;28;20810;-82
2022/11/28 01:49:55;;;;;;;6.70;5.50;;;;;;;6.39;100.00;100840.31;1031318;28;20387;-82
2022/11/28 01:50:27;;;;;;;9.10;5.90;;;;;;;6.39;100.00;100835.84;1031858;28;20368;-82
2022/11/28 01:51:01;;;;;;;8.02;6.70;;;;;;;6.51;100.00;100844.91;1025391;28;20713;-82
2022/11/28 01:51:33;;;;;;;9.90;6.13;;;;;;;6.56;100.00;100840.84;1026202;28;20368;-82
2022/11/28 01:52:09;;;;;;;7.88;6.18;;;;;;;6.58;100.00;100841.53;1027901;28;20302;-82
2022/11/28 01:52:43;;;;;;;9.32;6.35;;;;;;;6.55;100.00;100840.03;1031489;28;20325;-82
2022/11/28 01:53:15;;;;;;;7.43;5.70;;;;;;;6.57;100.00;100839.84;1035129;28;20305;-82
2022/11/28 01:53:47;;;;;;;7.85;6.32;;;;;;;6.46;100.00;100831.41;1038703;28;20393;-82
2022/11/28 01:54:21;;;;;;;10.32;6.63;;;;;;;6.46;100.00;100836.72;1034148;28;20352;-82
2022/11/28 01:54:56;;;;;;;9.13;6.20;;;;;;;6.49;100.00;100838.97;1031796;28;20710;-82
2022/11/28 01:55:32;;;;;;;8.23;5.88;;;;;;;6.51;100.00;100834.31;1032655;28;20788;-82
2022/11/28 01:56:19;;;;;;;9.05;6.25;;;;;;;6.54;100.00;100829.66;1037428;28;20356;-82
2022/11/28 01:56:58;;;;;;;7.72;5.28;;;;;;;6.53;100.00;100834.13;1035137;28;20343;-82
2022/11/28 01:57:29;;;;;;;10.00;6.72;;;;;;;6.47;100.00;100832.25;1027543;28;20301;-82
2022/11/28 01:58:01;;;;;;;8.68;5.97;;;;;;;6.55;100.00;100836.56;1023638;28;20843;-82
2022/11/28 01:58:34;;;;;;;10.32;6.85;;;;;;;6.57;100.00;100826.63;1027333;28;20382;-82
2022/11/28 01:59:06;;;;;;;11.00;6.25;;;;;;;6.59;100.00;100825.44;1024055;28;20302;-82
2022/11/28 01:59:42;;;;;;;7.10;6.10;;;;;;;6.53;100.00;100828.81;1024480;28;20441;-82
2022/11/28 02:00:17;;;;;;;7.88;5.65;;;;;;;6.57;100.00;100821.31;1033270;28;20305;-82
2022/11/28 02:00:49;;;;;;;10.63;6.82;;;;;;;6.51;100.00;100829.03;1031627;28;20333;-82
2022/11/28 02:01:23;;;;;;;8.07;5.60;;;;;;;6.60;100.00;100829.72;1029268;28;20665;-82
2022/11/28 02:01:54;;;;;;;7.78;5.75;;;;;;;6.67;100.00;100827.94;1028684;28;20305;-82
2022/11/28 02:02:33;;;;;;;12.15;6.25;;;;;;;6.57;100.00;100827.44;1024530;28;20314;-82
2022/11/28 02:03:09;;;;;;;11.35;6.43;;;;;;;6.57;100.00;100826.63;1025506;28;20372;-82
2022/11/28 02:03:46;;;;;;;8.45;5.93;;;;;;;6.70;100.00;100821.44;1024253;28;20818;-82
2022/11/28 02:04:17;;;;;;;9.52;6.60;;;;;;;6.65;100.00;100823.84;1030495;28;20352;-82
2022/11/28 02:04:49;;;;;;;7.25;5.40;;;;;;;6.62;100.00;100829.53;1030935;28;20361;-82
2022/11/28 02:05:21;;;;;;;8.27;6.70;;;;;;;6.61;100.00;100833.19;1030487;28;20372;-82
2022/11/28 02:05:53;;;;;;;8.15;5.95;;;;;;;6.61;100.00;100825.25;1031827;28;20327;-82
2022/11/28 02:06:25;;;;;;;7.53;5.63;;;;;;;6.56;100.00;100824.97;1031586;28;20297;-82
2022/11/28 02:06:56;;;;;;;7.93;5.32;;;;;;;6.65;100.00;100823.84;1032075;28;20380;-82
2022/11/28 02:07:28;;;;;;;8.75;6.30;;;;;;;6.58;100.00;100823.00;1032229;28;20775;-82
2022/11/28 02:07:59;;;;;;;7.00;5.70;;;;;;;6.68;100.00;100820.81;1037119;28;20790;-82
2022/11/28 02:08:34;;;;;;;8.38;6.40;;;;;;;6.57;100.00;100824.78;1035384;28;20324;-82
2022/11/28 02:09:12;;;;;;;9.43;6.25;;;;;;;6.66;100.00;100822.84;1028292;28;20842;-82
2022/11/28 02:09:44;;;;;;;9.40;6.40;;;;;;;6.70;100.00;100818.81;1027565;28;20302;-82
2022/11/28 02:10:20;;;;;;;7.47;5.70;;;;;;;6.58;100.00;100817.69;1031422;28;20789;-82
2022/11/28 02:11:04;;;;;;;9.15;5.32;;;;;;;6.70;100.00;100822.28;1029754;28;20290;-82
2022/11/28 02:11:42;;;;;;;7.32;5.38;;;;;;;6.71;100.00;100818.63;1030093;28;20301;-82
2022/11/28 02:12:22;;;;;;;9.48;6.60;;;;;;;6.66;100.00;100817.56;1034978;28;20788;-82
2022/11/28 02:12:58;;;;;;;13.10;5.93;;;;;;;6.70;100.00;100818.81;1035248;28;20316;-82
2022/11/28 02:13:39;;;;;;;7.10;5.28;;;;;;;6.72;100.00;100820.25;1034397;28;20293;-82
2022/11/28 02:14:19;;;;;;;;;;;;;;;6.69;100.00;100822.47;1035899;28;20803;-82
2022/11/28 02:15:17;;;;;;;7.18;5.28;;;;;;;6.67;100.00;100821.84;1039356;28;19956;-82
2022/11/28 02:16:09;;;;;;;8.73;5.78;;;;;;;6.82;100.00;100817.25;1039410;28;20304;-82
2022/11/28 02:17:02;;;;;;;9.52;6.72;;;;;;;6.72;100.00;100825.53;1039954;28;20288;-82
2022/11/28 02:17:40;;;;;;;8.68;5.70;;;;;;;6.77;100.00;100822.31;1040063;28;20304;-82
2022/11/28 02:18:23;;;;;;;8.27;5.63;;;;;;;6.77;100.00;100822.31;1038832;28;20750;-82
2022/11/28 02:19:32;;;;;;;7.03;5.85;;;;;;;6.67;100.00;100817.38;1039576;28;20373;-82
2022/11/28 02:20:42;;;;;;;8.07;5.30;;;;;;;6.66;100.00;100821.03;1042136;28;20378;-82
2022/11/28 02:21:25;;;;;;;7.13;5.30;;;;;;;6.79;100.00;100817.66;1043798;28;20385;-82
2022/11/28 02:22:00;;;;;;;7.72;6.20;;;;;;;6.70;100.00;100816.16;1043297;28;20491;-82
2022/11/28 02:22:45;;;;;;;7.55;6.25;;;;;;;6.69;100.00;100812.69;1039045;28;20383;-82
2022/11/28 02:23:23;;;;;;;9.93;5.45;;;;;;;6.69;100.00;100809.22;1039382;28;20398;-82
2022/11/28 02:24:22;;;;;;;9.85;6.60;;;;;;;6.59;100.00;100808.75;1036438;28;20901;-82
2022/11/28 02:25:19;;;;;;;7.97;6.72;;;;;;;6.55;100.00;100812.75;1037742;28;20770;-82
2022/11/28 02:26:21;;;;;;;7.13;5.70;;;;;;;6.67;100.00;100819.19;1039754;28;20304;-82
2022/11/28 02:27:13;;;;;;;9.23;6.25;;;;;;;6.68;100.00;100815.53;1038246;28;20415;-82
2022/11/28 02:28:17;;;;;;;8.70;5.60;;;;;;;6.68;100.00;100816.34;1037874;28;20407;-82
2022/11/28 02:29:37;;;;;;;8.32;5.78;;;;;;;6.54;100.00;100822.53;1038346;28;20304;-82
2022/11/28 02:30:13;;;;;;;8.07;6.22;;;;;;;6.60;100.00;100815.69;1031701;28;20664;-82
2022/11/28 02:31:11;;;;;;;15.05;6.88;;;;;;;6.62;100.00;100809.19;1029380;28;20675;-82
2022/11/28 02:32:01;;;;;;;8.45;5.97;;;;;;;6.59;100.00;100817.50;1031010;28;20299;-82
2022/11/28 02:32:47;;;;;;;10.70;6.88;;;;;;;6.58;100.00;100815.88;1035323;28;20313;-81
2022/11/28 02:33:30;;;;;;;9.50;6.50;;;;;;;6.49;100.00;100809.88;1037010;28;20332;-82
2022/11/28 02:34:08;;;;;;;9.50;6.80;;;;;;;6.46;100.00;100804.97;1029595;28;20764;-82
2022/11/28 02:34:49;;;;;;;9.48;6.53;;;;;;;6.42;100.00;100814.28;1031329;28;20440;-82
2022/11/28 02:35:31;;;;;;;7.65;6.85;;;;;;;6.60;100.00;100805.09;1031228;28;20840;-82
2022/11/28 02:36:17;;;;;;;12.35;8.82;;;;;;;6.51;100.00;100812.31;1034675;28;20379;-82
2022/11/28 02:37:05;;;;;;;12.90;7.43;;;;;;;6.45;100.00;100808.63;1035635;28;20328;-82
2022/11/28 02:37:44;;;;;;;8.85;6.18;;;;;;;6.42;100.00;100809.00;1030780;28;20880;-81
2022/11/28 02:38:22;;;;;;;12.30;8.00;;;;;;;6.40;100.00;100815.50;1030946;28;20384;-82
2022/11/28 02:39:12;;;;;;;11.93;6.25;;;;;;;6.49;100.00;100807.22;1035243;28;20292;-82
2022/11/28 02:39:53;;;;;;;9.52;6.45;;;;;;;6.46;100.00;100810.25;1042031;28;20386;-82
2022/11/28 02:40:36;;;;;;;8.30;6.45;;;;;;;6.49;100.00;100807.22;1043718;28;20348;-82